Oshkosh, WI

7:15 AM CDT on March 28, 2015 (GMT -0500)
Scott54902Wx | Change Station
CLOSE
Current Station
Personal Weather Station
Location: Oshkosh, WI
Elevation: 761 ft
Nearby Weather Stations

Elev 761 ft 44.01 °N, 88.57 °W | Updated 4 minutes ago

Clear
Clear
13.3 °F
Feels Like 13 °F
N
0.0
Wind Variable Wind from SSE

Today
High -- | Low -- °F
--% Chance of Precip.
Yesterday
High -- | Low -- °F
Precip. -- in
6:43 AM 7:16 PM
First Quarter, 62% visible
Pressure 30.34 in
Visibility 10.0 miles
Clouds Clear
Windchill 13 °F
Dew Point 11 °F
Humidity 90%
Rainfall 0.00 in
Snow Depth Not available.
UV 0 out of 12
Pollen 2.60 out of 12
Ozone Good
PM10 Good
Flu Activity Regional
METAR KOSH 281153Z 00000KT 10SM CLR M09/M11 A3028 RMK AO2 SLP272 T10891111 11072 21094 53012

More Conditions Fewer Conditions

Pressure 30.34 in
Visibility 10.0 miles
Clouds Clear
Windchill 13 °F
Dew Point 11 °F
Humidity 90%
Rainfall 0.00 in
Snow Depth Not available.
UV 0 out of 12
Pollen 2.60 out of 12
Ozone Good
PM10 Good
Flu Activity Regional
METAR KOSH 281153Z 00000KT 10SM CLR M09/M11 A3028 RMK AO2 SLP272 T10891111 11072 21094 53012

More Conditions Fewer Conditions

10-Day Weather Forecast

Almanac

Astronomy

Mar. 28, 2015 Rise Set
Actual Time 6:43 AM CDT 7:16 PM CDT
Civil Twilight 6:14 AM CDT 7:45 PM CDT
Nautical Twilight 5:39 AM CDT 8:19 PM CDT
Astronomical Twilight 5:04 AM CDT 8:55 PM CDT
Moon 1:06 PM CDT 2:59 AM CDT
Length of Visible Light 13h 30m
Length of Day
12h 32m
Tomorrow will be 3m 2s longer.
First Quarter, 62% of the Moon is Illuminated
Today
First Quarter
Apr 4
Full
Apr 11
Last Quarter
Apr 18
New
Apr 25
First Quarter

Today's Extremes

State Highs State Lows

Community

WunderPhotos

Upload Photos

1,808,964 photos uploaded!

Nearby

Air Quality

  Air Quality AQ Index Pollutant
Yesterday Good
OZONE
Yesterday Good
PM10
Current Good
OZONE
Current Good
PM10
Saturday Good
PM2.5
Sunday Good
PM2.5
Monday Good
PM2.5

Snow Depth

Station Depth Elevation
No new snow has been reported.

Earthquake Activity

City Distance Mag. Time & Date
No recent earthquake activity has been reported nearby.
Minimum magnitude displayed is 2.5.

Coastal Water Temperatures

Place Temperature
No Stations Reporting

Nearby Weather Stations